Time;durP1;ratioP1;P1;durP2;ratioP2;P2;SDS_P1;SDS_P2;PMS_P1;PMS_P2;Temp;Humidity;BMP_temperature;BMP_pressure;BME280_temperature;BME280_humidity;BME280_pressure;Samples;Min_cycle;Max_cycle;Signal;HPM_P1;HPM_P2
2021/01/18 00:01:37;;;;;;;10.37;7.17;;;6.00;99.90;;;;;;5094293;28;20207;-63
2021/01/18 00:04:05;;;;;;;13.60;8.03;;;6.00;99.90;;;;;;5094475;28;20225;-63
2021/01/18 00:06:31;;;;;;;16.37;8.13;;;6.00;99.90;;;;;;5091447;28;20208;-63
2021/01/18 00:08:57;;;;;;;14.13;8.47;;;6.00;99.90;;;;;;5091221;28;20224;-63
2021/01/18 00:11:24;;;;;;;15.67;8.63;;;6.00;99.90;;;;;;5091739;28;20204;-63
2021/01/18 00:13:51;;;;;;;14.23;8.00;;;5.80;99.90;;;;;;5094400;28;20232;-61
2021/01/18 00:16:19;;;;;;;13.50;7.53;;;5.80;99.90;;;;;;5094793;28;20211;-61
2021/01/18 00:18:45;;;;;;;11.93;7.70;;;5.80;99.90;;;;;;5095005;28;20216;-61
2021/01/18 00:21:14;;;;;;;13.30;7.73;;;5.80;99.90;;;;;;5094696;28;20208;-61
2021/01/18 00:23:40;;;;;;;10.53;7.90;;;5.90;99.90;;;;;;5094420;28;20231;-61
2021/01/18 00:26:07;;;;;;;15.67;8.27;;;5.90;99.90;;;;;;5094617;28;20208;-60
2021/01/18 00:28:34;;;;;;;13.67;8.10;;;5.80;99.90;;;;;;5094412;28;20227;-61
2021/01/18 00:31:00;;;;;;;10.93;8.07;;;5.80;99.90;;;;;;5094541;28;20530;-61
2021/01/18 00:33:26;;;;;;;12.10;8.10;;;5.80;99.90;;;;;;5093967;28;20311;-61
2021/01/18 00:35:52;;;;;;;11.80;7.77;;;5.80;99.90;;;;;;5095749;28;20212;-61
2021/01/18 00:38:19;;;;;;;12.83;8.37;;;5.80;99.90;;;;;;5099810;28;20215;-61
2021/01/18 00:40:46;;;;;;;12.50;8.40;;;5.80;99.90;;;;;;5094657;28;20200;-61
2021/01/18 00:43:12;;;;;;;11.63;7.50;;;5.70;99.90;;;;;;5094431;28;20211;-60
2021/01/18 00:45:38;;;;;;;8.93;7.13;;;5.60;99.90;;;;;;5098482;28;20642;-61
2021/01/18 00:48:05;;;;;;;10.33;7.13;;;5.60;99.90;;;;;;5101040;28;20204;-61
2021/01/18 00:50:32;;;;;;;13.47;7.73;;;5.60;99.90;;;;;;5099827;28;20242;-60
2021/01/18 00:52:59;;;;;;;12.40;8.10;;;5.70;99.90;;;;;;5100285;28;20258;-60
2021/01/18 00:55:27;;;;;;;12.17;8.20;;;5.60;99.90;;;;;;5098463;28;20203;-61
2021/01/18 00:57:54;;;;;;;18.53;9.67;;;5.70;99.90;;;;;;5094549;28;20261;-61
2021/01/18 01:00:22;;;;;;;11.80;7.30;;;5.70;99.90;;;;;;5094718;28;20626;-61
2021/01/18 01:02:50;;;;;;;9.93;7.40;;;5.60;99.90;;;;;;5094011;28;20211;-61
2021/01/18 01:05:18;;;;;;;9.77;6.97;;;5.70;99.90;;;;;;5094515;28;20220;-61
2021/01/18 01:07:46;;;;;;;8.43;6.80;;;5.70;99.90;;;;;;5094195;28;20211;-61
2021/01/18 01:10:15;;;;;;;9.80;6.70;;;5.60;99.90;;;;;;5093936;28;20224;-61
2021/01/18 01:12:42;;;;;;;9.00;6.80;;;5.60;99.90;;;;;;5093986;28;20207;-61
2021/01/18 01:15:09;;;;;;;9.53;6.77;;;5.50;99.90;;;;;;5094178;28;20235;-61
2021/01/18 01:17:43;;;;;;;11.10;6.73;;;5.50;99.90;;;;;;5094394;28;20590;-61
2021/01/18 01:20:10;;;;;;;7.97;6.83;;;5.60;99.90;;;;;;5093810;28;20200;-61
2021/01/18 01:22:38;;;;;;;10.93;7.20;;;5.60;99.90;;;;;;5093240;28;20616;-60
2021/01/18 01:25:05;;;;;;;6.80;5.57;;;5.60;99.90;;;;;;5092893;28;20271;-61
2021/01/18 01:27:31;;;;;;;7.80;5.73;;;5.60;99.90;;;;;;5093337;28;20768;-61
2021/01/18 01:29:58;;;;;;;9.03;6.07;;;5.70;99.90;;;;;;5093007;28;20602;-61
2021/01/18 01:32:24;;;;;;;8.27;6.70;;;5.70;99.90;;;;;;5093504;28;20209;-61
2021/01/18 01:34:50;;;;;;;10.47;6.87;;;5.60;99.90;;;;;;5092891;28;20224;-61
2021/01/18 01:37:16;;;;;;;10.33;6.50;;;5.70;99.90;;;;;;5093099;28;20204;-61
2021/01/18 01:39:43;;;;;;;9.77;6.40;;;5.60;99.90;;;;;;5092923;28;20203;-61
2021/01/18 01:42:18;;;;;;;13.00;8.37;;;5.70;99.90;;;;;;5092957;28;20219;-61
2021/01/18 01:44:44;;;;;;;10.80;7.03;;;5.60;99.90;;;;;;5092931;28;20704;-62
2021/01/18 01:47:14;;;;;;;10.47;6.43;;;5.70;99.90;;;;;;5093193;28;20204;-62
2021/01/18 01:49:41;;;;;;;8.57;6.10;;;5.70;99.90;;;;;;5093158;28;20223;-62
2021/01/18 01:52:07;;;;;;;8.03;5.93;;;5.80;99.90;;;;;;5092843;28;20675;-61
2021/01/18 01:54:33;;;;;;;9.57;6.27;;;5.80;99.90;;;;;;5092642;28;20281;-61
2021/01/18 01:57:00;;;;;;;8.77;6.60;;;5.90;99.90;;;;;;5092709;28;20276;-62
2021/01/18 01:59:27;;;;;;;10.13;6.97;;;5.90;99.90;;;;;;5092538;28;20204;-62
2021/01/18 02:01:55;;;;;;;9.27;6.40;;;5.90;99.90;;;;;;5092496;28;20208;-62
2021/01/18 02:04:22;;;;;;;10.37;7.03;;;5.90;99.90;;;;;;5092194;28;20227;-62
2021/01/18 02:06:48;;;;;;;9.37;7.07;;;5.90;99.90;;;;;;5092552;28;20201;-62
2021/01/18 02:09:16;;;;;;;9.43;6.97;;;5.90;99.90;;;;;;5092016;28;20216;-62
2021/01/18 02:11:42;;;;;;;8.80;6.80;;;5.90;99.90;;;;;;5092447;28;20204;-62
2021/01/18 02:14:21;;;;;;;9.37;6.47;;;6.00;99.90;;;;;;5092211;28;20230;-63
2021/01/18 02:16:54;;;;;;;8.33;6.17;;;6.00;99.90;;;;;;5092587;28;20295;-63
2021/01/18 02:19:57;;;;;;;8.60;7.00;;;6.00;99.90;;;;;;5092610;28;20245;-62
2021/01/18 02:22:53;;;;;;;8.10;6.03;;;6.00;99.90;;;;;;5085474;28;20200;-62
2021/01/18 02:25:36;;;;;;;10.83;6.60;;;6.00;99.90;;;;;;5091781;28;20255;-62
2021/01/18 02:28:12;;;;;;;12.67;7.20;;;6.00;99.90;;;;;;5091782;28;20204;-62
2021/01/18 02:31:20;;;;;;;8.70;7.00;;;6.00;99.90;;;;;;5091734;28;20760;-61
2021/01/18 02:34:12;;;;;;;8.10;6.93;;;6.10;99.90;;;;;;5064059;28;20228;-62
2021/01/18 02:36:47;;;;;;;8.93;6.30;;;6.10;99.90;;;;;;5091590;28;20208;-61
2021/01/18 02:39:22;;;;;;;9.50;6.33;;;6.10;99.90;;;;;;5091968;28;20200;-61
2021/01/18 02:41:54;;;;;;;8.47;6.40;;;6.10;99.90;;;;;;5092540;28;20207;-61
2021/01/18 02:44:23;;;;;;;8.73;6.20;;;6.10;99.90;;;;;;5091967;28;20715;-62
2021/01/18 02:46:51;;;;;;;8.43;6.60;;;6.10;99.90;;;;;;5091971;28;20645;-62
2021/01/18 02:49:19;;;;;;;10.73;7.10;;;6.10;99.90;;;;;;5091206;28;20231;-62
2021/01/18 02:51:52;;;;;;;7.30;6.47;;;6.10;99.90;;;;;;5091725;28;20204;-62
2021/01/18 02:54:18;;;;;;;9.90;6.73;;;6.10;99.90;;;;;;5091747;28;20490;-62
2021/01/18 02:56:51;;;;;;;8.87;6.67;;;6.10;99.90;;;;;;5091773;28;20208;-62
2021/01/18 02:59:18;;;;;;;9.63;6.43;;;6.10;99.90;;;;;;5092046;28;20204;-62
2021/01/18 03:02:08;;;;;;;9.07;5.93;;;6.10;99.90;;;;;;5092187;28;20212;-62
2021/01/18 03:04:50;;;;;;;7.00;5.53;;;6.10;99.90;;;;;;5091789;28;20330;-61
2021/01/18 03:07:21;;;;;;;7.87;5.93;;;6.10;99.90;;;;;;5091471;28;20231;-62
2021/01/18 03:09:53;;;;;;;8.37;5.90;;;6.00;99.90;;;;;;5091230;28;20216;-61
2021/01/18 03:12:23;;;;;;;7.37;5.90;;;6.00;99.90;;;;;;5091532;28;20204;-62
2021/01/18 03:14:54;;;;;;;5.93;5.33;;;5.90;99.90;;;;;;5091280;28;20284;-62
2021/01/18 03:17:24;;;;;;;7.87;6.33;;;5.90;99.90;;;;;;5091311;28;20215;-62
2021/01/18 03:19:52;;;;;;;8.33;5.80;;;6.00;99.90;;;;;;5091449;28;20200;-62
2021/01/18 03:22:23;;;;;;;6.87;5.43;;;6.00;99.90;;;;;;5091301;28;20257;-62
2021/01/18 03:24:49;;;;;;;8.83;5.53;;;5.90;99.90;;;;;;5091682;28;20228;-64
2021/01/18 03:27:16;;;;;;;7.40;5.40;;;6.00;99.90;;;;;;5091560;28;20209;-64
2021/01/18 03:29:42;;;;;;;8.80;5.90;;;6.00;99.90;;;;;;5091469;28;20227;-65
2021/01/18 03:32:09;;;;;;;10.10;5.90;;;6.00;99.90;;;;;;5091646;28;20579;-64
2021/01/18 03:34:35;;;;;;;8.60;6.20;;;6.00;99.90;;;;;;5091416;28;20708;-65
2021/01/18 03:37:02;;;;;;;11.07;6.40;;;6.00;99.90;;;;;;5091422;28;20204;-65
2021/01/18 03:39:29;;;;;;;9.67;7.30;;;6.00;99.90;;;;;;5091668;28;20291;-65
2021/01/18 03:41:56;;;;;;;9.43;6.53;;;6.00;99.90;;;;;;5091836;28;20204;-65
2021/01/18 03:44:22;;;;;;;10.07;6.97;;;6.00;99.90;;;;;;5091646;28;20291;-64
2021/01/18 03:46:48;;;;;;;9.73;7.03;;;6.00;99.90;;;;;;5092698;28;20257;-65
2021/01/18 03:49:14;;;;;;;10.70;7.47;;;5.90;99.90;;;;;;5094945;28;20216;-64
2021/01/18 03:51:40;;;;;;;15.27;7.53;;;5.90;99.90;;;;;;5094893;28;20217;-64
2021/01/18 03:54:07;;;;;;;12.57;7.80;;;5.90;99.90;;;;;;5094985;28;20654;-64
2021/01/18 03:56:39;;;;;;;8.50;7.20;;;5.90;99.90;;;;;;5095122;28;20558;-66
2021/01/18 03:59:05;;;;;;;11.27;7.73;;;5.80;99.90;;;;;;5095096;28;20265;-64
2021/01/18 04:01:36;;;;;;;12.63;8.07;;;5.80;99.90;;;;;;5094820;28;20204;-65
2021/01/18 04:04:03;;;;;;;11.37;7.77;;;5.80;99.90;;;;;;5094424;28;20742;-64
2021/01/18 04:06:33;;;;;;;12.23;7.80;;;5.90;99.90;;;;;;5095171;28;20204;-65
2021/01/18 04:08:59;;;;;;;8.97;7.53;;;5.90;99.90;;;;;;5095127;28;20224;-65
2021/01/18 04:11:26;;;;;;;12.13;8.00;;;5.90;99.90;;;;;;5094781;28;20254;-64
2021/01/18 04:13:53;;;;;;;13.10;7.80;;;5.90;99.90;;;;;;5095509;28;20318;-65
2021/01/18 04:16:19;;;;;;;12.80;7.87;;;5.90;99.90;;;;;;5095214;28;20209;-62
2021/01/18 04:18:45;;;;;;;11.37;8.00;;;5.90;99.90;;;;;;5095264;28;20200;-63
2021/01/18 04:21:11;;;;;;;11.33;7.70;;;5.90;99.90;;;;;;5095736;28;20718;-64
2021/01/18 04:23:38;;;;;;;11.63;7.27;;;5.90;99.90;;;;;;5094920;28;20232;-63
2021/01/18 04:26:04;;;;;;;11.70;7.90;;;5.80;99.90;;;;;;5095067;28;20210;-66
2021/01/18 04:28:31;;;;;;;10.67;7.83;;;5.80;99.90;;;;;;5094723;28;20231;-64
2021/01/18 04:30:58;;;;;;;10.20;7.70;;;5.80;99.90;;;;;;5094849;28;20215;-64
2021/01/18 04:33:25;;;;;;;10.70;7.50;;;5.70;99.90;;;;;;5094766;28;20233;-63
2021/01/18 04:35:54;;;;;;;11.13;7.70;;;5.70;99.90;;;;;;5094577;28;20208;-63
2021/01/18 04:38:20;;;;;;;11.80;7.50;;;5.70;99.90;;;;;;5094002;28;20318;-63
2021/01/18 04:40:46;;;;;;;8.77;7.20;;;5.60;99.90;;;;;;5094357;28;20200;-65
2021/01/18 04:43:13;;;;;;;12.33;7.73;;;5.50;99.90;;;;;;5094079;28;20515;-65
2021/01/18 04:45:40;;;;;;;13.40;8.40;;;5.50;99.90;;;;;;5093855;28;20208;-64
2021/01/18 04:48:08;;;;;;;17.07;9.93;;;5.40;99.90;;;;;;5093860;28;20211;-65
2021/01/18 04:50:35;;;;;;;11.13;8.37;;;5.40;99.90;;;;;;5093992;28;20761;-64
2021/01/18 04:53:08;;;;;;;11.13;7.97;;;5.40;99.90;;;;;;5094383;28;20204;-64
2021/01/18 04:56:01;;;;;;;9.07;7.47;;;5.30;99.90;;;;;;5094160;28;20269;-64
2021/01/18 04:58:30;;;;;;;14.83;7.93;;;5.20;99.90;;;;;;5093231;28;20648;-63
2021/01/18 05:01:00;;;;;;;14.20;8.00;;;5.30;99.90;;;;;;5093859;28;20210;-64
2021/01/18 05:03:34;;;;;;;16.30;9.93;;;5.30;99.90;;;;;;5093911;28;20250;-64
2021/01/18 05:06:33;;;;;;;12.53;8.60;;;5.20;99.90;;;;;;5093467;28;20204;-64
2021/01/18 05:09:29;;;;;;;15.77;8.67;;;5.10;99.90;;;;;;5093364;28;20634;-63
2021/01/18 05:11:59;;;;;;;12.63;7.37;;;5.10;99.90;;;;;;5093608;28;20280;-63
2021/01/18 05:14:26;;;;;;;13.43;8.23;;;5.10;99.90;;;;;;5093095;28;20731;-62
2021/01/18 05:16:57;;;;;;;15.63;8.10;;;5.10;99.90;;;;;;5093430;28;20208;-63
2021/01/18 05:19:26;;;;;;;14.03;8.00;;;5.10;99.90;;;;;;5093234;28;20615;-63
2021/01/18 05:21:53;;;;;;;14.67;8.10;;;5.10;99.90;;;;;;5093262;28;20204;-63
2021/01/18 05:24:20;;;;;;;13.63;8.23;;;5.10;99.90;;;;;;5093697;28;20239;-64
2021/01/18 05:27:03;;;;;;;12.40;8.00;;;5.20;99.90;;;;;;5093604;28;20278;-64
2021/01/18 05:29:34;;;;;;;12.93;8.10;;;5.10;99.90;;;;;;5092913;28;20223;-64
2021/01/18 05:32:00;;;;;;;12.30;7.07;;;5.20;99.90;;;;;;5093547;28;20273;-64
2021/01/18 05:34:29;;;;;;;11.53;8.10;;;5.20;99.90;;;;;;5092961;28;20224;-63
2021/01/18 05:36:56;;;;;;;12.53;8.23;;;5.20;99.90;;;;;;5093173;28;20208;-63
2021/01/18 05:39:24;;;;;;;13.83;7.80;;;5.20;99.90;;;;;;5092878;28;20204;-62
2021/01/18 05:41:51;;;;;;;18.33;8.77;;;5.20;99.90;;;;;;5093016;28;20212;-63
2021/01/18 05:44:19;;;;;;;15.47;8.23;;;5.30;99.90;;;;;;5092731;28;20615;-65
2021/01/18 05:46:47;;;;;;;14.83;8.00;;;5.30;99.90;;;;;;5093185;28;20211;-63
2021/01/18 05:49:15;;;;;;;12.50;7.83;;;5.30;99.90;;;;;;5092715;28;20297;-63
2021/01/18 05:51:47;;;;;;;14.33;7.03;;;5.30;99.90;;;;;;5092960;28;20667;-64
2021/01/18 05:54:14;;;;;;;13.30;7.57;;;5.30;99.90;;;;;;5092744;28;20750;-64
2021/01/18 05:56:42;;;;;;;14.07;7.63;;;5.30;99.90;;;;;;5092489;28;20209;-64
2021/01/18 05:59:16;;;;;;;13.73;8.77;;;5.40;99.90;;;;;;5093359;28;20699;-64
2021/01/18 06:01:43;;;;;;;14.30;9.43;;;5.30;99.90;;;;;;5093341;28;20256;-63
2021/01/18 06:04:11;;;;;;;15.43;8.23;;;5.30;99.90;;;;;;5092421;28;20647;-64
2021/01/18 06:06:37;;;;;;;16.53;8.00;;;5.40;99.90;;;;;;5092272;28;20200;-64
2021/01/18 06:09:05;;;;;;;18.03;8.67;;;5.40;99.90;;;;;;5091386;28;20290;-63
2021/01/18 06:11:31;;;;;;;12.83;7.67;;;5.40;99.90;;;;;;5092330;28;20671;-63
2021/01/18 06:14:02;;;;;;;14.20;7.53;;;5.40;99.90;;;;;;5092767;28;20235;-62
2021/01/18 06:16:30;;;;;;;16.73;7.90;;;5.40;99.90;;;;;;5092676;28;20218;-62
2021/01/18 06:19:20;;;;;;;20.37;7.70;;;5.40;99.90;;;;;;5092536;28;20242;-63
2021/01/18 06:21:46;;;;;;;23.03;9.77;;;5.50;99.90;;;;;;5092394;28;20211;-62
2021/01/18 06:24:19;;;;;;;17.70;8.70;;;5.40;99.90;;;;;;5092197;28;20231;-63
2021/01/18 06:26:46;;;;;;;14.67;8.20;;;5.50;99.90;;;;;;5092750;28;20215;-65
2021/01/18 06:29:36;;;;;;;11.97;8.30;;;5.50;99.90;;;;;;5092025;28;20595;-62
2021/01/18 06:32:04;;;;;;;14.87;7.73;;;5.40;99.90;;;;;;5092445;28;20235;-63
2021/01/18 06:34:31;;;;;;;14.07;7.27;;;5.40;99.90;;;;;;5092349;28;20726;-63
2021/01/18 06:36:58;;;;;;;14.77;7.83;;;5.40;99.90;;;;;;5092316;28;20664;-64
2021/01/18 06:39:26;;;;;;;10.80;6.97;;;5.50;99.90;;;;;;5092652;28;20203;-62
2021/01/18 06:41:57;;;;;;;12.97;8.23;;;5.50;99.90;;;;;;5092413;28;20645;-63
2021/01/18 06:44:37;;;;;;;12.60;6.87;;;5.60;99.90;;;;;;5092331;28;20726;-62
2021/01/18 06:47:26;;;;;;;17.27;7.47;;;5.60;99.90;;;;;;5092841;28;20208;-62
2021/01/18 06:49:54;;;;;;;21.37;10.50;;;5.60;99.90;;;;;;5092833;28;20601;-63
2021/01/18 06:52:26;;;;;;;14.47;7.00;;;5.70;99.90;;;;;;5093188;28;20321;-62
2021/01/18 06:54:59;;;;;;;16.60;7.50;;;5.70;99.90;;;;;;5093307;28;20227;-64
2021/01/18 06:57:54;;;;;;;13.47;7.53;;;5.80;99.90;;;;;;5093930;28;20212;-63
2021/01/18 07:00:21;;;;;;;15.53;8.30;;;5.80;99.90;;;;;;5094145;28;20204;-64
2021/01/18 07:02:55;;;;;;;12.47;8.33;;;5.90;99.90;;;;;;5093875;28;20207;-64
2021/01/18 07:05:45;;;;;;;16.80;7.03;;;5.90;99.90;;;;;;5094241;28;20200;-65
2021/01/18 07:08:14;;;;;;;14.67;7.17;;;5.90;99.90;;;;;;5094577;28;20215;-64
2021/01/18 07:10:44;;;;;;;21.40;8.17;;;5.90;99.90;;;;;;5095263;28;20228;-64
2021/01/18 07:13:11;;;;;;;17.17;8.10;;;5.90;99.90;;;;;;5095959;28;20223;-63
2021/01/18 07:15:40;;;;;;;13.20;7.03;;;5.90;99.90;;;;;;5096873;28;20200;-62
2021/01/18 07:18:08;;;;;;;12.03;6.77;;;5.90;99.90;;;;;;5097556;28;20210;-63
2021/01/18 07:20:42;;;;;;;20.13;8.07;;;5.90;99.90;;;;;;5093292;28;20204;-61
2021/01/18 07:23:27;;;;;;;13.57;6.50;;;5.90;99.90;;;;;;5095473;28;20581;-64
2021/01/18 07:26:32;;;;;;;17.17;6.97;;;5.90;99.90;;;;;;5095836;28;20227;-61
2021/01/18 07:29:03;;;;;;;13.33;6.43;;;5.80;99.90;;;;;;5095032;28;20207;-61
2021/01/18 07:31:30;;;;;;;13.40;6.83;;;5.80;99.90;;;;;;5095180;28;20204;-62
2021/01/18 07:33:57;;;;;;;16.07;6.67;;;5.70;99.90;;;;;;5094844;28;20227;-61
2021/01/18 07:36:25;;;;;;;11.73;6.73;;;5.90;99.90;;;;;;5094987;28;20204;-62
2021/01/18 07:38:52;;;;;;;10.13;6.20;;;6.00;99.90;;;;;;5094896;28;20210;-61
2021/01/18 07:41:20;;;;;;;11.03;6.90;;;6.20;99.90;;;;;;5094916;28;20258;-62
2021/01/18 07:43:48;;;;;;;10.77;6.27;;;6.30;99.90;;;;;;5094970;28;20224;-62
2021/01/18 07:46:37;;;;;;;11.77;6.30;;;6.50;99.90;;;;;;5095090;28;20231;-60
2021/01/18 07:49:40;;;;;;;11.23;5.67;;;6.60;99.90;;;;;;5094500;28;20200;-60
2021/01/18 07:52:30;;;;;;;12.50;5.70;;;6.80;99.90;;;;;;5094408;28;20200;-62
2021/01/18 07:55:00;;;;;;;12.37;6.20;;;7.00;99.90;;;;;;5074254;28;20316;-61
2021/01/18 07:57:33;;;;;;;12.97;5.60;;;7.10;99.90;;;;;;5094433;28;20695;-62
2021/01/18 08:00:28;;;;;;;12.07;5.23;;;7.20;99.90;;;;;;5094572;28;20200;-63
2021/01/18 08:03:22;;;;;;;13.70;5.50;;;7.30;99.90;;;;;;5094392;28;20585;-63
2021/01/18 08:05:52;;;;;;;13.67;5.63;;;7.30;99.90;;;;;;5094808;28;20223;-61
2021/01/18 08:08:20;;;;;;;9.57;4.93;;;7.40;99.90;;;;;;5096600;28;20214;-61
2021/01/18 08:10:58;;;;;;;13.47;5.73;;;7.40;99.90;;;;;;5098608;28;20251;-61
2021/01/18 08:13:32;;;;;;;9.33;5.13;;;7.40;99.90;;;;;;5097500;28;20225;-61
2021/01/18 08:16:09;;;;;;;9.90;5.20;;;7.40;99.90;;;;;;5094972;28;20261;-62
2021/01/18 08:18:35;;;;;;;12.83;5.43;;;7.30;99.90;;;;;;5094726;28;20208;-61
2021/01/18 08:21:23;;;;;;;7.90;5.10;;;7.20;99.90;;;;;;5094537;28;20614;-62
2021/01/18 08:23:49;;;;;;;10.57;5.20;;;7.10;99.90;;;;;;5093977;28;20232;-61
2021/01/18 08:26:15;;;;;;;8.93;5.37;;;7.10;99.90;;;;;;5094590;28;20253;-63
2021/01/18 08:28:48;;;;;;;9.43;4.77;;;7.10;99.90;;;;;;5094162;28;20227;-63
2021/01/18 08:31:14;;;;;;;8.47;5.37;;;7.20;99.90;;;;;;5094104;28;20289;-64
2021/01/18 08:33:41;;;;;;;10.77;4.70;;;7.20;99.90;;;;;;5092847;28;20225;-64
2021/01/18 08:36:07;;;;;;;9.90;5.43;;;7.20;99.90;;;;;;5094069;28;20205;-63
2021/01/18 08:38:33;;;;;;;11.20;5.83;;;7.20;99.90;;;;;;5093687;28;20600;-64
2021/01/18 08:41:07;;;;;;;8.20;5.47;;;7.20;99.90;;;;;;5093791;28;20201;-64
2021/01/18 08:43:49;;;;;;;10.80;5.83;;;7.00;99.90;;;;;;5093675;28;20247;-63
2021/01/18 08:46:31;;;;;;;11.47;6.90;;;7.00;99.90;;;;;;5093860;28;20215;-63
2021/01/18 08:49:20;;;;;;;10.30;7.23;;;7.00;99.90;;;;;;5093788;28;20210;-64
2021/01/18 08:51:47;;;;;;;12.83;7.73;;;7.00;99.90;;;;;;5094123;28;20265;-64
2021/01/18 08:54:28;;;;;;;13.93;7.43;;;7.10;99.90;;;;;;5093578;28;20716;-63
2021/01/18 08:57:23;;;;;;;16.93;8.17;;;7.10;99.90;;;;;;5094178;28;20204;-64
2021/01/18 09:00:04;;;;;;;10.40;6.60;;;7.20;99.90;;;;;;5093820;28;20254;-64
2021/01/18 09:02:30;;;;;;;14.47;6.87;;;7.30;99.90;;;;;;5094070;28;20212;-64
2021/01/18 09:05:11;;;;;;;12.40;6.70;;;7.30;99.90;;;;;;5093546;28;20224;-66
2021/01/18 09:07:39;;;;;;;11.30;6.37;;;7.40;99.90;;;;;;5093267;28;20204;-64
2021/01/18 09:10:12;;;;;;;11.20;5.70;;;7.50;99.90;;;;;;5093453;28;20220;-64
2021/01/18 09:12:39;;;;;;;8.83;5.87;;;7.50;99.90;;;;;;5093361;28;20233;-65
2021/01/18 09:15:08;;;;;;;8.63;5.70;;;7.60;99.90;;;;;;5093621;28;20227;-65
2021/01/18 09:17:34;;;;;;;7.63;4.90;;;7.70;99.90;;;;;;5093463;28;20277;-65
2021/01/18 09:20:04;;;;;;;11.30;5.93;;;7.90;99.90;;;;;;5093730;28;20239;-64
2021/01/18 09:22:32;;;;;;;9.90;5.80;;;8.10;99.90;;;;;;5094083;28;20219;-65
2021/01/18 09:24:59;;;;;;;8.50;6.23;;;8.30;99.90;;;;;;5093714;28;20243;-65
2021/01/18 09:27:25;;;;;;;7.90;6.03;;;8.30;99.90;;;;;;5093681;28;20638;-65
2021/01/18 09:29:59;;;;;;;11.07;6.30;;;8.30;99.90;;;;;;5093552;28;20216;-64
2021/01/18 09:32:26;;;;;;;8.03;5.87;;;8.20;99.90;;;;;;5093171;28;20261;-64
2021/01/18 09:35:03;;;;;;;7.43;5.40;;;8.30;99.90;;;;;;5093156;28;20629;-63
2021/01/18 09:37:30;;;;;;;7.73;5.43;;;8.30;99.90;;;;;;5092650;28;20214;-65
2021/01/18 09:39:56;;;;;;;9.60;5.53;;;8.30;99.90;;;;;;5092814;28;20200;-65
2021/01/18 09:42:23;;;;;;;9.37;5.30;;;8.20;99.90;;;;;;5092986;28;20299;-63
2021/01/18 09:44:54;;;;;;;7.80;5.23;;;8.30;99.90;;;;;;5091642;28;20273;-64
2021/01/18 09:47:22;;;;;;;8.17;5.30;;;8.30;99.90;;;;;;5092841;28;20214;-63
2021/01/18 09:49:49;;;;;;;8.50;5.17;;;8.30;99.90;;;;;;5092330;28;20230;-64
2021/01/18 09:52:16;;;;;;;9.43;5.20;;;8.20;99.90;;;;;;5092689;28;20205;-66
2021/01/18 09:54:50;;;;;;;9.57;4.80;;;8.10;99.90;;;;;;5092411;28;20221;-62
2021/01/18 09:57:20;;;;;;;11.33;5.33;;;8.00;99.90;;;;;;5092875;28;20646;-64
2021/01/18 09:59:49;;;;;;;9.60;5.03;;;7.90;99.90;;;;;;5092605;28;20204;-65
2021/01/18 10:02:17;;;;;;;7.93;5.63;;;8.00;99.90;;;;;;5092329;28;20200;-65
2021/01/18 10:04:50;;;;;;;7.73;5.57;;;8.10;99.90;;;;;;5092538;28;20247;-65
2021/01/18 10:07:21;;;;;;;6.13;4.73;;;8.00;99.90;;;;;;5092587;28;20233;-65
2021/01/18 10:09:47;;;;;;;5.97;4.60;;;7.90;99.90;;;;;;5092344;28;20220;-65
2021/01/18 10:12:23;;;;;;;7.77;5.57;;;7.90;99.90;;;;;;5092254;28;20207;-65
2021/01/18 10:14:50;;;;;;;10.67;5.23;;;7.90;99.90;;;;;;5091962;28;20238;-65
2021/01/18 10:17:16;;;;;;;13.07;6.27;;;8.10;99.90;;;;;;5092186;28;20215;-65
2021/01/18 10:19:42;;;;;;;8.80;5.90;;;8.30;99.90;;;;;;5092143;28;20207;-66
2021/01/18 10:22:16;;;;;;;8.53;4.33;;;8.30;99.90;;;;;;5091706;28;20294;-65
2021/01/18 10:24:53;;;;;;;6.97;4.47;;;8.40;99.90;;;;;;5091463;28;20236;-65
2021/01/18 10:27:25;;;;;;;5.83;4.33;;;8.30;99.90;;;;;;5091736;28;20208;-65
2021/01/18 10:30:07;;;;;;;5.47;4.07;;;8.40;99.90;;;;;;5091848;28;20228;-65
2021/01/18 10:32:38;;;;;;;7.70;4.67;;;8.40;99.90;;;;;;5091769;28;20675;-64
2021/01/18 10:35:19;;;;;;;8.20;4.80;;;8.50;99.90;;;;;;5091573;28;20315;-65
2021/01/18 10:37:46;;;;;;;5.90;4.47;;;8.50;99.90;;;;;;5091506;28;20655;-65
2021/01/18 10:40:13;;;;;;;6.07;4.40;;;8.50;99.90;;;;;;5091211;28;20211;-65
2021/01/18 10:42:48;;;;;;;5.97;4.40;;;8.60;99.90;;;;;;5091286;28;20212;-65
2021/01/18 10:45:16;;;;;;;7.47;4.97;;;8.60;99.90;;;;;;5091387;28;20224;-64
2021/01/18 10:47:53;;;;;;;8.17;4.87;;;8.80;99.90;;;;;;5091379;28;20209;-64
2021/01/18 10:50:23;;;;;;;7.10;5.20;;;8.90;99.90;;;;;;5091275;28;20227;-66
2021/01/18 10:53:00;;;;;;;11.43;5.20;;;9.00;99.90;;;;;;5091537;28;20218;-65
2021/01/18 10:55:26;;;;;;;7.40;4.73;;;9.20;99.90;;;;;;5091069;28;20204;-64
2021/01/18 10:57:53;;;;;;;6.37;3.43;;;9.50;99.90;;;;;;5091139;28;20200;-65
2021/01/18 11:00:21;;;;;;;10.10;5.53;;;9.60;99.90;;;;;;5091808;28;20208;-65
2021/01/18 11:02:54;;;;;;;10.07;5.00;;;9.80;99.90;;;;;;5091005;28;20215;-64
2021/01/18 11:05:26;;;;;;;6.73;3.50;;;9.90;99.90;;;;;;5091237;28;20228;-64
2021/01/18 11:07:54;;;;;;;4.37;3.57;;;9.90;99.90;;;;;;5090995;28;20717;-65
2021/01/18 11:10:22;;;;;;;8.53;3.67;;;9.90;99.90;;;;;;5091244;28;20223;-65
2021/01/18 11:12:56;;;;;;;6.20;3.77;;;9.90;99.90;;;;;;5091125;28;20204;-65
2021/01/18 11:15:29;;;;;;;13.77;5.03;;;9.90;99.90;;;;;;5090851;28;20573;-65
2021/01/18 11:17:55;;;;;;;9.30;5.10;;;10.00;99.90;;;;;;5091059;28;20558;-65
2021/01/18 11:20:23;;;;;;;4.90;3.73;;;10.10;99.90;;;;;;5091389;28;20204;-65
2021/01/18 11:22:50;;;;;;;7.17;3.70;;;10.10;99.80;;;;;;5091135;28;20204;-65
2021/01/18 11:25:17;;;;;;;5.90;3.40;;;10.10;99.50;;;;;;5090458;28;20712;-64
2021/01/18 11:27:43;;;;;;;5.77;3.90;;;10.00;99.50;;;;;;5091216;28;20231;-62
2021/01/18 11:30:11;;;;;;;7.50;4.00;;;9.80;99.90;;;;;;5091491;28;20293;-65
2021/01/18 11:32:37;;;;;;;7.07;3.70;;;9.70;99.90;;;;;;5091300;28;20205;-65
2021/01/18 11:35:04;;;;;;;5.73;3.37;;;9.70;99.90;;;;;;5091005;28;20281;-65
2021/01/18 11:37:31;;;;;;;7.87;3.77;;;9.60;99.90;;;;;;5091433;28;20393;-64
2021/01/18 11:39:58;;;;;;;5.80;3.90;;;9.70;99.90;;;;;;5091435;28;20208;-65
2021/01/18 11:42:25;;;;;;;6.40;3.27;;;9.80;99.90;;;;;;5091499;28;20261;-65
2021/01/18 11:44:51;;;;;;;6.57;3.40;;;9.80;99.90;;;;;;5090915;28;20704;-65
2021/01/18 11:47:17;;;;;;;6.23;3.20;;;9.80;99.90;;;;;;5091200;28;20204;-65
2021/01/18 11:49:43;;;;;;;5.67;3.73;;;9.80;99.90;;;;;;5090865;28;20281;-65
2021/01/18 11:52:09;;;;;;;7.57;3.70;;;9.90;99.90;;;;;;5090890;28;20204;-64
2021/01/18 11:54:36;;;;;;;7.83;3.60;;;9.90;99.90;;;;;;5091458;28;20247;-65
2021/01/18 11:57:04;;;;;;;7.60;3.80;;;9.90;99.90;;;;;;5091530;28;20230;-65
2021/01/18 11:59:31;;;;;;;5.43;3.40;;;9.90;99.90;;;;;;5091710;28;20224;-63
2021/01/18 12:01:58;;;;;;;7.17;3.57;;;9.80;99.90;;;;;;5091650;28;20583;-65
2021/01/18 12:04:24;;;;;;;9.53;4.67;;;9.80;99.90;;;;;;5091308;28;20255;-64
2021/01/18 12:06:50;;;;;;;7.47;4.00;;;9.70;99.90;;;;;;5091392;28;20204;-65
2021/01/18 12:09:16;;;;;;;7.40;4.07;;;9.60;99.90;;;;;;5094983;28;20733;-65
2021/01/18 12:11:44;;;;;;;7.03;3.97;;;9.60;99.90;;;;;;5094598;28;20208;-64
2021/01/18 12:14:10;;;;;;;11.83;3.87;;;9.60;99.90;;;;;;5094413;28;20700;-64
2021/01/18 12:16:37;;;;;;;7.17;3.87;;;9.60;99.90;;;;;;5095348;28;20215;-66
2021/01/18 12:19:04;;;;;;;5.77;3.80;;;9.70;99.90;;;;;;5094842;28;20694;-66
2021/01/18 12:21:30;;;;;;;11.10;4.43;;;9.70;99.90;;;;;;5094820;28;20672;-68
2021/01/18 12:23:56;;;;;;;6.90;3.90;;;9.80;99.90;;;;;;5094157;28;20232;-66
2021/01/18 12:26:22;;;;;;;5.83;3.60;;;9.80;99.90;;;;;;5094714;28;20408;-66
2021/01/18 12:28:50;;;;;;;6.97;4.17;;;9.80;99.90;;;;;;5094436;28;20549;-67
2021/01/18 12:31:17;;;;;;;6.97;3.80;;;9.70;99.90;;;;;;5094569;28;20231;-67
2021/01/18 12:33:44;;;;;;;5.07;3.20;;;9.70;99.90;;;;;;5094921;28;20492;-67
2021/01/18 12:36:11;;;;;;;6.40;3.57;;;9.70;99.80;;;;;;5094298;28;20208;-68
2021/01/18 12:38:37;;;;;;;5.60;3.37;;;9.70;99.90;;;;;;5094409;28;20621;-68
2021/01/18 12:41:03;;;;;;;7.13;3.63;;;9.70;99.90;;;;;;5094610;28;20200;-67
2021/01/18 12:43:29;;;;;;;8.80;3.77;;;9.80;99.90;;;;;;5094497;28;20220;-64
2021/01/18 12:45:56;;;;;;;7.83;3.50;;;9.80;99.90;;;;;;5094030;28;20674;-66
2021/01/18 12:48:22;;;;;;;6.60;3.70;;;9.80;99.60;;;;;;5093927;28;20232;-66
2021/01/18 12:50:49;;;;;;;7.53;3.37;;;9.80;99.80;;;;;;5094507;28;20354;-66
2021/01/18 12:53:43;;;;;;;8.10;3.63;;;9.80;99.60;;;;;;5094461;28;20790;-63
2021/01/18 12:56:03;;;;;;;6.80;4.00;;;9.80;99.70;;;;;;5094621;28;20210;-67
2021/01/18 12:58:30;;;;;;;7.37;3.40;;;9.80;99.70;;;;;;5093966;28;20704;-67
2021/01/18 13:00:56;;;;;;;5.20;3.40;;;9.80;99.60;;;;;;5093898;28;20635;-66
2021/01/18 13:03:22;;;;;;;6.57;3.50;;;9.70;99.60;;;;;;5093836;28;20224;-65
2021/01/18 13:05:51;;;;;;;7.07;3.47;;;9.60;99.70;;;;;;5093569;28;20212;-67
2021/01/18 13:08:17;;;;;;;4.20;3.00;;;9.50;99.80;;;;;;5093440;28;20209;-66